sensor_id;sensor_type;location;lat;lon;timestamp;pressure;altitude;pressure_sealevel;temperature;humidity
48404;BME280;34202;52.536;6.042;2023-12-04T00:04:00;101458.67;;;0.19;100.00
48404;BME280;34202;52.536;6.042;2023-12-04T00:09:01;101450.97;;;0.18;100.00
48404;BME280;34202;52.536;6.042;2023-12-04T00:14:01;101441.89;;;0.18;100.00
48404;BME280;34202;52.536;6.042;2023-12-04T00:19:02;101437.36;;;0.20;100.00
48404;BME280;34202;52.536;6.042;2023-12-04T00:24:03;101429.98;;;0.19;100.00
48404;BME280;34202;52.536;6.042;2023-12-04T00:29:04;101428.85;;;0.21;100.00
48404;BME280;34202;52.536;6.042;2023-12-04T00:34:04;101426.67;;;0.22;100.00
48404;BME280;34202;52.536;6.042;2023-12-04T00:39:05;101423.65;;;0.23;100.00
48404;BME280;34202;52.536;6.042;2023-12-04T00:44:05;101418.91;;;0.24;100.00
48404;BME280;34202;52.536;6.042;2023-12-04T00:49:05;101416.39;;;0.25;100.00
48404;BME280;34202;52.536;6.042;2023-12-04T00:54:06;101416.56;;;0.25;100.00
48404;BME280;34202;52.536;6.042;2023-12-04T00:59:10;101409.86;;;0.24;100.00
48404;BME280;34202;52.536;6.042;2023-12-04T01:04:10;101397.02;;;0.24;100.00
48404;BME280;34202;52.536;6.042;2023-12-04T01:09:11;101391.94;;;0.25;100.00
48404;BME280;34202;52.536;6.042;2023-12-04T01:14:11;101387.16;;;0.25;100.00
48404;BME280;34202;52.536;6.042;2023-12-04T01:19:11;101386.91;;;0.24;100.00
48404;BME280;34202;52.536;6.042;2023-12-04T01:24:14;101382.19;;;0.25;100.00
48404;BME280;34202;52.536;6.042;2023-12-04T01:29:15;101379.10;;;0.25;100.00
48404;BME280;34202;52.536;6.042;2023-12-04T01:34:15;101374.30;;;0.25;100.00
48404;BME280;34202;52.536;6.042;2023-12-04T01:39:15;101370.48;;;0.24;100.00
48404;BME280;34202;52.536;6.042;2023-12-04T01:44:16;101366.04;;;0.24;100.00
48404;BME280;34202;52.536;6.042;2023-12-04T01:49:18;101361.10;;;0.25;100.00
48404;BME280;34202;52.536;6.042;2023-12-04T01:54:19;101358.89;;;0.25;100.00
48404;BME280;34202;52.536;6.042;2023-12-04T01:59:20;101355.66;;;0.26;100.00
48404;BME280;34202;52.536;6.042;2023-12-04T02:04:21;101350.50;;;0.25;100.00
48404;BME280;34202;52.536;6.042;2023-12-04T02:09:22;101355.12;;;0.25;100.00
48404;BME280;34202;52.536;6.042;2023-12-04T02:14:22;101344.52;;;0.25;100.00
48404;BME280;34202;52.536;6.042;2023-12-04T02:19:23;101344.67;;;0.25;100.00
48404;BME280;34202;52.536;6.042;2023-12-04T02:24:24;101332.86;;;0.25;100.00
48404;BME280;34202;52.536;6.042;2023-12-04T02:29:32;101328.58;;;0.25;100.00
48404;BME280;34202;52.536;6.042;2023-12-04T02:34:37;101318.59;;;0.24;100.00
48404;BME280;34202;52.536;6.042;2023-12-04T02:39:40;101315.88;;;0.24;100.00
48404;BME280;34202;52.536;6.042;2023-12-04T02:44:41;101317.98;;;0.25;100.00
48404;BME280;34202;52.536;6.042;2023-12-04T02:49:41;101315.52;;;0.27;100.00
48404;BME280;34202;52.536;6.042;2023-12-04T02:54:41;101308.38;;;0.28;100.00
48404;BME280;34202;52.536;6.042;2023-12-04T02:59:42;101305.31;;;0.28;100.00
48404;BME280;34202;52.536;6.042;2023-12-04T03:04:42;101291.46;;;0.28;100.00
48404;BME280;34202;52.536;6.042;2023-12-04T03:09:43;101280.20;;;0.29;100.00
48404;BME280;34202;52.536;6.042;2023-12-04T03:14:43;101272.34;;;0.29;100.00
48404;BME280;34202;52.536;6.042;2023-12-04T03:19:44;101263.77;;;0.29;100.00
48404;BME280;34202;52.536;6.042;2023-12-04T03:24:44;101263.77;;;0.29;100.00
48404;BME280;34202;52.536;6.042;2023-12-04T03:29:45;101260.06;;;0.30;100.00
48404;BME280;34202;52.536;6.042;2023-12-04T03:34:46;101247.55;;;0.30;100.00
48404;BME280;34202;52.536;6.042;2023-12-04T03:39:46;101241.16;;;0.29;100.00
48404;BME280;34202;52.536;6.042;2023-12-04T03:44:46;101235.66;;;0.29;100.00
48404;BME280;34202;52.536;6.042;2023-12-04T03:49:47;101238.58;;;0.29;100.00
48404;BME280;34202;52.536;6.042;2023-12-04T03:54:47;101231.85;;;0.28;100.00
48404;BME280;34202;52.536;6.042;2023-12-04T03:59:48;101219.14;;;0.27;100.00
48404;BME280;34202;52.536;6.042;2023-12-04T04:04:48;101210.36;;;0.26;100.00
48404;BME280;34202;52.536;6.042;2023-12-04T04:09:48;101205.02;;;0.26;100.00
48404;BME280;34202;52.536;6.042;2023-12-04T04:14:49;101203.73;;;0.24;100.00
48404;BME280;34202;52.536;6.042;2023-12-04T04:19:49;101203.73;;;0.24;100.00
48404;BME280;34202;52.536;6.042;2023-12-04T04:24:49;101203.59;;;0.24;100.00
48404;BME280;34202;52.536;6.042;2023-12-04T04:29:50;101188.48;;;0.24;100.00
48404;BME280;34202;52.536;6.042;2023-12-04T04:34:50;101184.61;;;0.25;100.00
48404;BME280;34202;52.536;6.042;2023-12-04T04:39:51;101178.79;;;0.25;100.00
48404;BME280;34202;52.536;6.042;2023-12-04T04:44:51;101168.88;;;0.25;100.00
48404;BME280;34202;52.536;6.042;2023-12-04T04:49:51;101164.45;;;0.26;100.00
48404;BME280;34202;52.536;6.042;2023-12-04T04:54:52;101161.37;;;0.26;100.00
48404;BME280;34202;52.536;6.042;2023-12-04T04:59:52;101154.42;;;0.27;100.00
48404;BME280;34202;52.536;6.042;2023-12-04T05:04:53;101148.09;;;0.27;100.00
48404;BME280;34202;52.536;6.042;2023-12-04T05:09:53;101135.06;;;0.27;100.00
48404;BME280;34202;52.536;6.042;2023-12-04T05:14:53;101133.85;;;0.27;100.00
48404;BME280;34202;52.536;6.042;2023-12-04T05:19:54;101133.48;;;0.26;100.00
48404;BME280;34202;52.536;6.042;2023-12-04T05:24:54;101130.27;;;0.27;100.00
48404;BME280;34202;52.536;6.042;2023-12-04T05:29:54;101122.53;;;0.26;100.00
48404;BME280;34202;52.536;6.042;2023-12-04T05:34:55;101121.81;;;0.25;100.00
48404;BME280;34202;52.536;6.042;2023-12-04T05:39:55;101120.39;;;0.25;100.00
48404;BME280;34202;52.536;6.042;2023-12-04T05:44:56;101113.86;;;0.24;100.00
48404;BME280;34202;52.536;6.042;2023-12-04T05:49:57;101114.20;;;0.24;100.00
48404;BME280;34202;52.536;6.042;2023-12-04T05:54:58;101104.69;;;0.22;100.00
48404;BME280;34202;52.536;6.042;2023-12-04T05:59:58;101098.14;;;0.21;100.00
48404;BME280;34202;52.536;6.042;2023-12-04T06:04:59;101090.94;;;0.21;100.00
48404;BME280;34202;52.536;6.042;2023-12-04T06:10:00;101088.33;;;0.20;100.00
48404;BME280;34202;52.536;6.042;2023-12-04T06:15:00;101084.02;;;0.20;100.00
48404;BME280;34202;52.536;6.042;2023-12-04T06:20:01;101080.05;;;0.19;100.00
48404;BME280;34202;52.536;6.042;2023-12-04T06:25:02;101074.23;;;0.19;100.00
48404;BME280;34202;52.536;6.042;2023-12-04T06:30:02;101063.63;;;0.19;100.00
48404;BME280;34202;52.536;6.042;2023-12-04T06:35:04;101061.29;;;0.20;100.00
48404;BME280;34202;52.536;6.042;2023-12-04T06:40:05;101057.85;;;0.20;100.00
48404;BME280;34202;52.536;6.042;2023-12-04T06:45:09;101049.30;;;0.20;100.00
48404;BME280;34202;52.536;6.042;2023-12-04T06:50:10;101042.65;;;0.21;100.00
48404;BME280;34202;52.536;6.042;2023-12-04T06:55:11;101036.30;;;0.20;100.00
48404;BME280;34202;52.536;6.042;2023-12-04T07:00:12;101036.38;;;0.22;100.00
48404;BME280;34202;52.536;6.042;2023-12-04T07:05:15;101027.18;;;0.23;100.00
48404;BME280;34202;52.536;6.042;2023-12-04T07:10:15;101021.88;;;0.23;100.00
48404;BME280;34202;52.536;6.042;2023-12-04T07:15:16;101013.52;;;0.24;100.00
48404;BME280;34202;52.536;6.042;2023-12-04T07:20:17;101009.45;;;0.24;100.00
48404;BME280;34202;52.536;6.042;2023-12-04T07:25:17;101007.42;;;0.25;100.00
48404;BME280;34202;52.536;6.042;2023-12-04T07:30:18;101012.27;;;0.26;100.00
48404;BME280;34202;52.536;6.042;2023-12-04T07:35:18;101009.57;;;0.27;100.00
48404;BME280;34202;52.536;6.042;2023-12-04T07:40:19;101010.95;;;0.27;100.00
48404;BME280;34202;52.536;6.042;2023-12-04T07:45:21;101000.89;;;0.28;100.00
48404;BME280;34202;52.536;6.042;2023-12-04T07:50:21;100994.79;;;0.29;100.00
48404;BME280;34202;52.536;6.042;2023-12-04T07:55:22;100984.72;;;0.29;100.00
48404;BME280;34202;52.536;6.042;2023-12-04T08:00:22;100981.52;;;0.30;100.00
48404;BME280;34202;52.536;6.042;2023-12-04T08:05:22;100976.39;;;0.31;100.00
48404;BME280;34202;52.536;6.042;2023-12-04T08:10:23;100969.80;;;0.32;100.00
48404;BME280;34202;52.536;6.042;2023-12-04T08:15:23;100966.26;;;0.33;100.00
48404;BME280;34202;52.536;6.042;2023-12-04T08:20:24;100964.11;;;0.35;100.00
48404;BME280;34202;52.536;6.042;2023-12-04T08:25:24;100955.31;;;0.37;100.00
48404;BME280;34202;52.536;6.042;2023-12-04T08:30:24;100952.21;;;0.40;100.00
48404;BME280;34202;52.536;6.042;2023-12-04T08:35:27;100947.89;;;0.43;100.00
48404;BME280;34202;52.536;6.042;2023-12-04T08:40:27;100941.20;;;0.46;100.00
48404;BME280;34202;52.536;6.042;2023-12-04T08:45:28;100940.69;;;0.49;100.00
48404;BME280;34202;52.536;6.042;2023-12-04T08:50:28;100937.73;;;0.52;100.00
48404;BME280;34202;52.536;6.042;2023-12-04T08:55:28;100940.90;;;0.57;100.00
48404;BME280;34202;52.536;6.042;2023-12-04T09:00:29;100942.65;;;0.62;100.00
48404;BME280;34202;52.536;6.042;2023-12-04T09:05:29;100954.37;;;0.67;100.00
48404;BME280;34202;52.536;6.042;2023-12-04T09:10:30;100948.43;;;0.72;100.00
48404;BME280;34202;52.536;6.042;2023-12-04T09:15:30;100940.40;;;0.76;100.00
48404;BME280;34202;52.536;6.042;2023-12-04T09:20:31;100940.98;;;0.81;100.00
48404;BME280;34202;52.536;6.042;2023-12-04T09:25:31;100937.41;;;0.85;100.00
48404;BME280;34202;52.536;6.042;2023-12-04T09:30:31;100941.47;;;0.87;100.00
48404;BME280;34202;52.536;6.042;2023-12-04T09:35:32;100934.59;;;0.91;100.00
48404;BME280;34202;52.536;6.042;2023-12-04T09:40:32;100934.71;;;0.93;100.00
48404;BME280;34202;52.536;6.042;2023-12-04T09:45:33;100931.94;;;0.96;100.00
48404;BME280;34202;52.536;6.042;2023-12-04T09:50:34;100932.24;;;0.99;100.00
48404;BME280;34202;52.536;6.042;2023-12-04T09:55:34;100919.85;;;1.01;100.00
48404;BME280;34202;52.536;6.042;2023-12-04T10:00:35;100920.86;;;1.05;100.00
48404;BME280;34202;52.536;6.042;2023-12-04T10:05:35;100920.83;;;1.08;100.00
48404;BME280;34202;52.536;6.042;2023-12-04T10:10:36;100916.52;;;1.11;100.00
48404;BME280;34202;52.536;6.042;2023-12-04T10:15:57;100915.98;;;1.14;100.00
48404;BME280;34202;52.536;6.042;2023-12-04T10:20:58;100910.42;;;1.16;100.00
48404;BME280;34202;52.536;6.042;2023-12-04T10:26:00;100898.35;;;1.19;100.00
48404;BME280;34202;52.536;6.042;2023-12-04T10:31:00;100891.09;;;1.21;100.00
48404;BME280;34202;52.536;6.042;2023-12-04T10:36:01;100880.04;;;1.23;100.00
48404;BME280;34202;52.536;6.042;2023-12-04T10:41:12;100875.44;;;1.24;100.00
48404;BME280;34202;52.536;6.042;2023-12-04T10:46:16;100867.83;;;1.26;100.00
48404;BME280;34202;52.536;6.042;2023-12-04T10:51:17;100861.40;;;1.28;100.00
48404;BME280;34202;52.536;6.042;2023-12-04T10:56:38;100857.20;;;1.30;100.00
48404;BME280;34202;52.536;6.042;2023-12-04T11:01:42;100848.89;;;1.32;100.00
48404;BME280;34202;52.536;6.042;2023-12-04T11:06:47;100840.05;;;1.33;100.00
48404;BME280;34202;52.536;6.042;2023-12-04T11:11:51;100834.66;;;1.36;100.00
48404;BME280;34202;52.536;6.042;2023-12-04T11:17:00;100825.19;;;1.39;100.00
48404;BME280;34202;52.536;6.042;2023-12-04T11:22:02;100828.19;;;1.41;100.00
48404;BME280;34202;52.536;6.042;2023-12-04T11:27:04;100824.90;;;1.44;100.00
48404;BME280;34202;52.536;6.042;2023-12-04T11:32:06;100820.07;;;1.48;100.00
48404;BME280;34202;52.536;6.042;2023-12-04T11:37:08;100821.23;;;1.50;100.00
48404;BME280;34202;52.536;6.042;2023-12-04T11:42:09;100814.15;;;1.53;100.00
48404;BME280;34202;52.536;6.042;2023-12-04T11:47:11;100811.35;;;1.56;100.00
48404;BME280;34202;52.536;6.042;2023-12-04T11:52:11;100803.82;;;1.61;100.00
48404;BME280;34202;52.536;6.042;2023-12-04T12:02:13;100783.30;;;1.67;100.00
48404;BME280;34202;52.536;6.042;2023-12-04T12:07:15;100778.29;;;1.69;100.00
48404;BME280;34202;52.536;6.042;2023-12-04T12:12:15;100769.95;;;1.71;100.00
48404;BME280;34202;52.536;6.042;2023-12-04T12:17:16;100760.27;;;1.74;100.00
48404;BME280;34202;52.536;6.042;2023-12-04T12:22:17;100756.71;;;1.75;100.00
48404;BME280;34202;52.536;6.042;2023-12-04T12:27:17;100755.60;;;1.77;100.00
48404;BME280;34202;52.536;6.042;2023-12-04T12:32:18;100748.97;;;1.79;100.00
48404;BME280;34202;52.536;6.042;2023-12-04T12:37:18;100744.73;;;1.80;100.00
48404;BME280;34202;52.536;6.042;2023-12-04T12:42:27;100736.73;;;1.81;100.00
48404;BME280;34202;52.536;6.042;2023-12-04T12:47:27;100727.70;;;1.83;100.00
48404;BME280;34202;52.536;6.042;2023-12-04T12:52:30;100719.24;;;1.86;100.00
48404;BME280;34202;52.536;6.042;2023-12-04T12:57:30;100709.05;;;1.89;100.00
48404;BME280;34202;52.536;6.042;2023-12-04T13:02:34;100706.94;;;1.92;100.00
48404;BME280;34202;52.536;6.042;2023-12-04T13:07:35;100701.00;;;1.94;100.00
48404;BME280;34202;52.536;6.042;2023-12-04T13:12:35;100689.73;;;1.96;100.00
48404;BME280;34202;52.536;6.042;2023-12-04T13:17:36;100681.73;;;1.97;100.00
48404;BME280;34202;52.536;6.042;2023-12-04T13:22:36;100684.05;;;2.00;100.00
48404;BME280;34202;52.536;6.042;2023-12-04T13:27:37;100677.92;;;2.01;100.00
48404;BME280;34202;52.536;6.042;2023-12-04T13:32:38;100669.23;;;2.02;100.00
48404;BME280;34202;52.536;6.042;2023-12-04T13:37:39;100663.61;;;2.03;100.00
48404;BME280;34202;52.536;6.042;2023-12-04T13:42:39;100661.08;;;2.04;100.00
48404;BME280;34202;52.536;6.042;2023-12-04T13:47:58;100651.61;;;2.04;100.00
48404;BME280;34202;52.536;6.042;2023-12-04T13:52:59;100643.77;;;2.05;100.00
48404;BME280;34202;52.536;6.042;2023-12-04T13:58:00;100632.67;;;2.07;100.00
48404;BME280;34202;52.536;6.042;2023-12-04T14:03:04;100626.60;;;2.10;100.00
48404;BME280;34202;52.536;6.042;2023-12-04T14:08:04;100616.63;;;2.14;100.00
48404;BME280;34202;52.536;6.042;2023-12-04T14:13:05;100606.48;;;2.18;100.00
48404;BME280;34202;52.536;6.042;2023-12-04T14:18:05;100602.75;;;2.24;100.00
48404;BME280;34202;52.536;6.042;2023-12-04T14:23:06;100594.48;;;2.28;100.00
48404;BME280;34202;52.536;6.042;2023-12-04T14:28:06;100588.01;;;2.29;100.00
48404;BME280;34202;52.536;6.042;2023-12-04T14:33:07;100583.70;;;2.29;100.00
48404;BME280;34202;52.536;6.042;2023-12-04T14:38:09;100583.80;;;2.27;100.00
48404;BME280;34202;52.536;6.042;2023-12-04T14:43:09;100580.27;;;2.24;100.00
48404;BME280;34202;52.536;6.042;2023-12-04T14:48:12;100581.66;;;2.21;100.00
48404;BME280;34202;52.536;6.042;2023-12-04T14:53:12;100578.46;;;2.17;100.00
48404;BME280;34202;52.536;6.042;2023-12-04T14:58:43;100578.89;;;2.15;100.00
48404;BME280;34202;52.536;6.042;2023-12-04T15:03:43;100571.27;;;2.13;100.00
48404;BME280;34202;52.536;6.042;2023-12-04T15:09:03;100560.20;;;2.11;100.00
48404;BME280;34202;52.536;6.042;2023-12-04T15:14:22;100553.46;;;2.09;100.00
48404;BME280;34202;52.536;6.042;2023-12-04T15:19:55;100554.67;;;2.05;100.00
48404;BME280;34202;52.536;6.042;2023-12-04T15:24:59;100547.70;;;2.02;100.00
48404;BME280;34202;52.536;6.042;2023-12-04T15:30:00;100538.13;;;1.98;100.00
48404;BME280;34202;52.536;6.042;2023-12-04T15:35:00;100531.25;;;1.93;100.00
48404;BME280;34202;52.536;6.042;2023-12-04T15:40:01;100529.16;;;1.88;100.00
48404;BME280;34202;52.536;6.042;2023-12-04T15:45:02;100525.08;;;1.84;100.00
48404;BME280;34202;52.536;6.042;2023-12-04T15:50:03;100522.85;;;1.80;100.00
48404;BME280;34202;52.536;6.042;2023-12-04T15:55:07;100525.09;;;1.76;100.00
48404;BME280;34202;52.536;6.042;2023-12-04T16:00:12;100527.05;;;1.73;100.00
48404;BME280;34202;52.536;6.042;2023-12-04T16:05:13;100525.08;;;1.70;100.00
48404;BME280;34202;52.536;6.042;2023-12-04T16:10:13;100517.90;;;1.67;100.00
48404;BME280;34202;52.536;6.042;2023-12-04T16:15:14;100512.31;;;1.64;100.00
48404;BME280;34202;52.536;6.042;2023-12-04T16:20:17;100512.19;;;1.61;100.00
48404;BME280;34202;52.536;6.042;2023-12-04T16:25:17;100514.48;;;1.58;100.00
48404;BME280;34202;52.536;6.042;2023-12-04T16:30:18;100513.09;;;1.57;100.00
48404;BME280;34202;52.536;6.042;2023-12-04T16:35:19;100507.08;;;1.57;100.00
48404;BME280;34202;52.536;6.042;2023-12-04T16:40:19;100500.18;;;1.56;100.00
48404;BME280;34202;52.536;6.042;2023-12-04T16:45:20;100495.98;;;1.54;100.00
48404;BME280;34202;52.536;6.042;2023-12-04T16:50:21;100489.81;;;1.54;100.00
48404;BME280;34202;52.536;6.042;2023-12-04T16:55:23;100492.20;;;1.53;100.00
48404;BME280;34202;52.536;6.042;2023-12-04T17:00:24;100488.90;;;1.53;100.00
48404;BME280;34202;52.536;6.042;2023-12-04T17:05:24;100485.97;;;1.52;100.00
48404;BME280;34202;52.536;6.042;2023-12-04T17:10:25;100483.17;;;1.50;100.00
48404;BME280;34202;52.536;6.042;2023-12-04T17:15:28;100476.08;;;1.49;100.00
48404;BME280;34202;52.536;6.042;2023-12-04T17:20:29;100476.04;;;1.48;100.00
48404;BME280;34202;52.536;6.042;2023-12-04T17:25:29;100473.05;;;1.46;100.00
48404;BME280;34202;52.536;6.042;2023-12-04T17:30:30;100472.70;;;1.46;100.00
48404;BME280;34202;52.536;6.042;2023-12-04T17:35:31;100479.16;;;1.44;100.00
48404;BME280;34202;52.536;6.042;2023-12-04T17:40:31;100478.45;;;1.44;100.00
48404;BME280;34202;52.536;6.042;2023-12-04T17:45:31;100471.96;;;1.44;100.00
48404;BME280;34202;52.536;6.042;2023-12-04T17:50:33;100463.16;;;1.43;100.00
48404;BME280;34202;52.536;6.042;2023-12-04T17:55:33;100464.88;;;1.43;100.00
48404;BME280;34202;52.536;6.042;2023-12-04T18:00:34;100465.14;;;1.41;100.00
48404;BME280;34202;52.536;6.042;2023-12-04T18:05:34;100467.66;;;1.39;100.00
48404;BME280;34202;52.536;6.042;2023-12-04T18:10:37;100466.90;;;1.38;100.00
48404;BME280;34202;52.536;6.042;2023-12-04T18:15:38;100459.05;;;1.34;100.00
48404;BME280;34202;52.536;6.042;2023-12-04T18:20:38;100460.16;;;1.31;100.00
48404;BME280;34202;52.536;6.042;2023-12-04T18:25:40;100452.65;;;1.28;100.00
48404;BME280;34202;52.536;6.042;2023-12-04T18:30:41;100448.87;;;1.23;100.00
48404;BME280;34202;52.536;6.042;2023-12-04T18:35:42;100441.48;;;1.18;100.00
48404;BME280;34202;52.536;6.042;2023-12-04T18:40:43;100432.82;;;1.16;100.00
48404;BME280;34202;52.536;6.042;2023-12-04T18:45:44;100422.46;;;1.14;100.00
48404;BME280;34202;52.536;6.042;2023-12-04T18:50:46;100423.54;;;1.10;100.00
48404;BME280;34202;52.536;6.042;2023-12-04T18:55:46;100417.78;;;1.08;100.00
48404;BME280;34202;52.536;6.042;2023-12-04T19:00:46;100419.86;;;1.04;100.00
48404;BME280;34202;52.536;6.042;2023-12-04T19:05:47;100417.64;;;1.00;100.00
48404;BME280;34202;52.536;6.042;2023-12-04T19:10:48;100414.73;;;0.95;100.00
48404;BME280;34202;52.536;6.042;2023-12-04T19:15:48;100411.20;;;0.93;100.00
48404;BME280;34202;52.536;6.042;2023-12-04T19:20:49;100402.66;;;0.89;100.00
48404;BME280;34202;52.536;6.042;2023-12-04T19:25:49;100395.69;;;0.86;100.00
48404;BME280;34202;52.536;6.042;2023-12-04T19:30:50;100392.58;;;0.81;100.00
48404;BME280;34202;52.536;6.042;2023-12-04T19:35:51;100386.37;;;0.75;100.00
48404;BME280;34202;52.536;6.042;2023-12-04T19:40:51;100383.33;;;0.72;100.00
48404;BME280;34202;52.536;6.042;2023-12-04T19:45:52;100380.66;;;0.69;100.00
48404;BME280;34202;52.536;6.042;2023-12-04T19:50:52;100375.53;;;0.65;100.00
48404;BME280;34202;52.536;6.042;2023-12-04T19:55:52;100374.61;;;0.63;100.00
48404;BME280;34202;52.536;6.042;2023-12-04T20:00:53;100365.30;;;0.62;100.00
48404;BME280;34202;52.536;6.042;2023-12-04T20:05:53;100360.63;;;0.61;100.00
48404;BME280;34202;52.536;6.042;2023-12-04T20:10:54;100361.10;;;0.60;100.00
48404;BME280;34202;52.536;6.042;2023-12-04T20:15:54;100362.94;;;0.59;100.00
48404;BME280;34202;52.536;6.042;2023-12-04T20:20:55;100358.63;;;0.57;100.00
48404;BME280;34202;52.536;6.042;2023-12-04T20:25:55;100354.48;;;0.56;100.00
48404;BME280;34202;52.536;6.042;2023-12-04T20:30:56;100348.81;;;0.56;100.00
48404;BME280;34202;52.536;6.042;2023-12-04T20:35:57;100346.59;;;0.56;100.00
48404;BME280;34202;52.536;6.042;2023-12-04T20:40:57;100336.38;;;0.54;100.00
48404;BME280;34202;52.536;6.042;2023-12-04T20:45:57;100334.22;;;0.51;100.00
48404;BME280;34202;52.536;6.042;2023-12-04T20:50:58;100333.15;;;0.50;100.00
48404;BME280;34202;52.536;6.042;2023-12-04T20:55:59;100329.25;;;0.46;100.00
48404;BME280;34202;52.536;6.042;2023-12-04T21:00:59;100326.59;;;0.44;100.00
48404;BME280;34202;52.536;6.042;2023-12-04T21:06:00;100325.84;;;0.42;100.00
48404;BME280;34202;52.536;6.042;2023-12-04T21:11:00;100325.30;;;0.42;100.00
48404;BME280;34202;52.536;6.042;2023-12-04T21:16:00;100323.59;;;0.42;100.00
48404;BME280;34202;52.536;6.042;2023-12-04T21:21:01;100319.31;;;0.42;100.00
48404;BME280;34202;52.536;6.042;2023-12-04T21:26:02;100317.46;;;0.43;100.00
48404;BME280;34202;52.536;6.042;2023-12-04T21:31:05;100311.63;;;0.42;100.00
48404;BME280;34202;52.536;6.042;2023-12-04T21:36:06;100312.65;;;0.42;100.00
48404;BME280;34202;52.536;6.042;2023-12-04T21:41:07;100307.01;;;0.42;100.00
48404;BME280;34202;52.536;6.042;2023-12-04T21:46:07;100308.41;;;0.43;100.00
48404;BME280;34202;52.536;6.042;2023-12-04T21:51:07;100307.06;;;0.44;100.00
48404;BME280;34202;52.536;6.042;2023-12-04T21:56:08;100306.77;;;0.46;100.00
48404;BME280;34202;52.536;6.042;2023-12-04T22:01:08;100303.72;;;0.46;100.00
48404;BME280;34202;52.536;6.042;2023-12-04T22:06:09;100296.39;;;0.47;100.00
48404;BME280;34202;52.536;6.042;2023-12-04T22:11:10;100294.73;;;0.48;100.00
48404;BME280;34202;52.536;6.042;2023-12-04T22:16:10;100292.64;;;0.47;100.00
48404;BME280;34202;52.536;6.042;2023-12-04T22:21:11;100285.45;;;0.47;100.00
48404;BME280;34202;52.536;6.042;2023-12-04T22:26:13;100285.16;;;0.49;100.00
48404;BME280;34202;52.536;6.042;2023-12-04T22:31:13;100284.17;;;0.50;100.00
48404;BME280;34202;52.536;6.042;2023-12-04T22:36:14;100280.94;;;0.50;100.00
48404;BME280;34202;52.536;6.042;2023-12-04T22:41:14;100281.28;;;0.50;100.00
48404;BME280;34202;52.536;6.042;2023-12-04T22:46:14;100275.63;;;0.50;100.00
48404;BME280;34202;52.536;6.042;2023-12-04T22:51:15;100267.73;;;0.50;100.00
48404;BME280;34202;52.536;6.042;2023-12-04T22:56:16;100266.02;;;0.49;100.00
48404;BME280;34202;52.536;6.042;2023-12-04T23:01:17;100267.20;;;0.49;100.00
48404;BME280;34202;52.536;6.042;2023-12-04T23:06:17;100264.30;;;0.49;100.00
48404;BME280;34202;52.536;6.042;2023-12-04T23:11:17;100262.42;;;0.50;100.00
48404;BME280;34202;52.536;6.042;2023-12-04T23:16:18;100260.02;;;0.49;100.00
48404;BME280;34202;52.536;6.042;2023-12-04T23:21:18;100260.21;;;0.50;100.00
48404;BME280;34202;52.536;6.042;2023-12-04T23:26:19;100261.92;;;0.50;100.00
48404;BME280;34202;52.536;6.042;2023-12-04T23:31:19;100256.43;;;0.50;100.00
48404;BME280;34202;52.536;6.042;2023-12-04T23:36:20;100251.00;;;0.51;100.00
48404;BME280;34202;52.536;6.042;2023-12-04T23:41:20;100252.77;;;0.52;100.00
48404;BME280;34202;52.536;6.042;2023-12-04T23:46:20;100252.60;;;0.52;100.00
48404;BME280;34202;52.536;6.042;2023-12-04T23:51:21;100249.17;;;0.52;100.00
48404;BME280;34202;52.536;6.042;2023-12-04T23:56:21;100243.86;;;0.52;100.00
